createdAt,value
2023-05-23T00:00:02.073Z,0.00
2023-05-23T00:01:02.039Z,0.00
2023-05-23T00:02:02.087Z,0.00
2023-05-23T00:03:02.135Z,0.00
2023-05-23T00:04:03.038Z,0.00
2023-05-23T00:05:02.010Z,0.00
2023-05-23T00:06:01.977Z,0.00
2023-05-23T00:07:01.968Z,0.00
2023-05-23T00:08:01.957Z,0.00
2023-05-23T00:09:01.939Z,0.00
2023-05-23T00:10:03.002Z,0.00
2023-05-23T00:11:01.902Z,0.00
2023-05-23T00:12:01.896Z,0.00
2023-05-23T00:13:01.880Z,0.00
2023-05-23T00:14:01.870Z,0.00
2023-05-23T00:15:02.862Z,0.00
2023-05-23T00:16:01.859Z,0.00
2023-05-23T00:17:01.866Z,0.00
2023-05-23T00:18:01.894Z,0.00
2023-05-23T00:19:01.872Z,0.00
2023-05-23T00:20:02.737Z,0.00
2023-05-23T00:21:01.794Z,0.00
2023-05-23T00:22:01.796Z,0.00
2023-05-23T00:23:01.778Z,0.00
2023-05-23T00:24:01.755Z,0.00
2023-05-23T00:25:01.751Z,0.00
2023-05-23T00:26:02.696Z,0.00
2023-05-23T00:27:01.760Z,0.00
2023-05-23T00:28:01.726Z,0.00
2023-05-23T00:29:01.705Z,0.00
2023-05-23T00:30:01.683Z,0.00
2023-05-23T00:31:01.688Z,0.00
2023-05-23T00:32:02.614Z,0.00
2023-05-23T00:33:01.764Z,0.00
2023-05-23T00:34:01.627Z,0.00
2023-05-23T00:35:01.668Z,0.00
2023-05-23T00:36:01.669Z,0.00
2023-05-23T00:37:01.634Z,0.00
2023-05-23T00:38:02.598Z,0.00
2023-05-23T00:39:01.629Z,0.00
2023-05-23T00:40:01.554Z,0.00
2023-05-23T00:41:01.533Z,0.00
2023-05-23T00:42:01.571Z,0.00
2023-05-23T00:43:01.539Z,0.00
2023-05-23T00:44:02.434Z,0.00
2023-05-23T00:45:01.548Z,0.00
2023-05-23T00:46:01.514Z,0.00
2023-05-23T00:47:01.462Z,0.00
2023-05-23T00:48:01.534Z,0.00
2023-05-23T00:49:01.446Z,0.00
2023-05-23T00:50:02.489Z,0.00
2023-05-23T00:51:01.468Z,0.00
2023-05-23T00:52:01.433Z,0.00
2023-05-23T00:53:01.404Z,0.00
2023-05-23T00:54:01.445Z,0.00
2023-05-23T00:55:02.357Z,0.00
2023-05-23T00:56:01.379Z,0.00
2023-05-23T00:57:01.380Z,0.00
2023-05-23T00:58:01.363Z,0.00
2023-05-23T00:59:01.312Z,0.00
2023-05-23T01:00:01.350Z,0.00
2023-05-23T01:01:02.222Z,0.00
2023-05-23T01:02:01.352Z,0.00
2023-05-23T01:03:01.495Z,0.00
2023-05-23T01:04:01.314Z,0.00
2023-05-23T01:05:01.240Z,0.00
2023-05-23T01:06:01.251Z,0.00
2023-05-23T01:07:02.155Z,0.00
2023-05-23T01:08:01.248Z,0.00
2023-05-23T01:09:01.198Z,0.00
2023-05-23T01:10:01.203Z,0.00
2023-05-23T01:11:01.195Z,0.00
2023-05-23T01:12:01.201Z,0.00
2023-05-23T01:13:02.104Z,0.00
2023-05-23T01:14:01.178Z,0.00
2023-05-23T01:15:01.160Z,0.00
2023-05-23T01:16:02.903Z,0.00
2023-05-23T01:17:01.093Z,0.00
2023-05-23T01:18:01.123Z,0.00
2023-05-23T01:19:02.057Z,0.00
2023-05-23T01:20:01.091Z,0.00
2023-05-23T01:21:01.083Z,0.00
2023-05-23T01:22:01.016Z,0.00
2023-05-23T01:23:01.123Z,0.00
2023-05-23T01:24:02.023Z,0.00
2023-05-23T01:25:02.008Z,0.00
2023-05-23T01:26:01.078Z,0.00
2023-05-23T01:27:00.960Z,0.00
2023-05-23T01:28:00.959Z,0.00
2023-05-23T01:29:01.066Z,0.00
2023-05-23T01:30:00.941Z,0.00
2023-05-23T01:31:01.868Z,0.00
2023-05-23T01:32:00.931Z,0.00
2023-05-23T01:33:00.980Z,0.00
2023-05-23T01:34:00.916Z,0.00
2023-05-23T01:35:00.833Z,0.00
2023-05-23T01:36:00.875Z,0.00
2023-05-23T01:37:01.763Z,0.00
2023-05-23T01:38:00.856Z,0.00
2023-05-23T01:39:00.823Z,0.00
2023-05-23T01:40:00.811Z,0.00
2023-05-23T01:41:00.808Z,0.00
2023-05-23T01:42:00.764Z,0.00
2023-05-23T01:43:01.699Z,0.00
2023-05-23T01:44:00.766Z,0.00
2023-05-23T01:45:00.737Z,0.00
2023-05-23T01:46:00.793Z,0.00
2023-05-23T01:47:00.708Z,0.00
2023-05-23T01:48:01.662Z,0.00
2023-05-23T01:49:00.724Z,0.00
2023-05-23T01:50:00.670Z,0.00
2023-05-23T01:51:00.681Z,0.00
2023-05-23T01:52:00.699Z,0.00
2023-05-23T01:53:01.607Z,0.00
2023-05-23T01:54:00.634Z,0.00
2023-05-23T01:55:00.646Z,0.00
2023-05-23T01:56:00.631Z,0.00
2023-05-23T01:57:00.682Z,0.00
2023-05-23T01:58:00.582Z,0.00
2023-05-23T01:59:01.481Z,0.00
2023-05-23T02:00:00.767Z,0.00
2023-05-23T02:01:01.351Z,0.00
2023-05-23T02:02:00.610Z,0.00
2023-05-23T02:03:01.373Z,0.00
2023-05-23T02:04:00.506Z,0.00
2023-05-23T02:05:01.774Z,0.00
2023-05-23T02:06:00.548Z,0.00
2023-05-23T02:07:00.508Z,0.00
2023-05-23T02:08:00.492Z,0.00
2023-05-23T02:09:01.160Z,0.00
2023-05-23T02:10:01.442Z,0.00
2023-05-23T02:11:00.538Z,0.00
2023-05-23T02:12:00.529Z,0.00
2023-05-23T02:13:00.486Z,0.00
2023-05-23T02:14:00.520Z,0.00
2023-05-23T02:15:01.315Z,0.00
2023-05-23T02:16:00.404Z,0.00
2023-05-23T02:17:00.418Z,0.00
2023-05-23T02:18:00.478Z,0.00
2023-05-23T02:19:00.349Z,0.00
2023-05-23T02:20:00.579Z,0.00
2023-05-23T02:21:01.254Z,0.00
2023-05-23T02:22:00.248Z,0.00
2023-05-23T02:23:00.331Z,0.00
2023-05-23T02:24:00.332Z,0.00
2023-05-23T02:25:00.229Z,0.00
2023-05-23T02:26:00.249Z,0.00
2023-05-23T02:27:01.180Z,0.00
2023-05-23T02:28:00.335Z,0.00
2023-05-23T02:29:00.195Z,0.00
2023-05-23T02:30:00.255Z,0.00
2023-05-23T02:31:00.273Z,0.00
2023-05-23T02:32:01.132Z,0.00
2023-05-23T02:33:00.174Z,0.00
2023-05-23T02:34:00.200Z,4.00
2023-05-23T02:35:00.099Z,4.00
2023-05-23T02:36:00.152Z,4.00
2023-05-23T02:37:00.117Z,0.00
2023-05-23T02:38:01.118Z,0.00
2023-05-23T02:39:00.094Z,4.00
2023-05-23T02:40:00.239Z,4.00
2023-05-23T02:41:00.033Z,4.00
2023-05-23T02:42:00.005Z,0.00
2023-05-23T02:43:00.029Z,4.00
2023-05-23T02:44:01.000Z,4.00
2023-05-23T02:45:00.008Z,4.00
2023-05-23T02:46:00.034Z,8.00
2023-05-23T02:46:59.934Z,4.00
2023-05-23T02:48:00.085Z,4.00
2023-05-23T02:49:57.438Z,4.00
2023-05-23T02:50:57.404Z,8.00
2023-05-23T02:51:57.400Z,8.00
2023-05-23T02:52:57.416Z,12.00
2023-05-23T02:53:57.399Z,12.00
2023-05-23T02:54:58.316Z,12.00
2023-05-23T02:55:57.371Z,16.00
2023-05-23T02:56:57.359Z,16.00
2023-05-23T02:57:57.331Z,16.00
2023-05-23T02:58:57.302Z,20.00
2023-05-23T02:59:57.299Z,16.00
2023-05-23T03:00:58.246Z,20.00
2023-05-23T03:01:57.391Z,24.00
2023-05-23T03:02:57.403Z,28.00
2023-05-23T03:03:57.390Z,28.00
2023-05-23T03:04:57.248Z,28.00
2023-05-23T03:05:58.212Z,28.00
2023-05-23T03:06:57.255Z,36.00
2023-05-23T03:07:57.197Z,36.00
2023-05-23T03:08:57.207Z,36.00
2023-05-23T03:09:57.200Z,40.00
2023-05-23T03:10:58.106Z,36.00
2023-05-23T03:11:57.183Z,40.00
2023-05-23T03:12:57.144Z,40.00
2023-05-23T03:13:57.243Z,44.00
2023-05-23T03:14:57.106Z,44.00
2023-05-23T03:15:58.119Z,52.00
2023-05-23T03:16:57.159Z,56.00
2023-05-23T03:17:57.161Z,56.00
2023-05-23T03:18:57.119Z,64.00
2023-05-23T03:19:57.061Z,72.00
2023-05-23T03:20:57.072Z,80.00
2023-05-23T03:21:57.045Z,84.00
2023-05-23T03:22:57.071Z,92.00
2023-05-23T03:23:57.063Z,100.00
2023-05-23T03:24:57.037Z,100.00
2023-05-23T03:25:57.977Z,104.00
2023-05-23T03:26:56.990Z,108.00
2023-05-23T03:27:56.972Z,112.00
2023-05-23T03:28:56.996Z,120.00
2023-05-23T03:29:56.946Z,120.00
2023-05-23T03:30:57.887Z,128.00
2023-05-23T03:31:56.960Z,124.00
2023-05-23T03:32:56.979Z,128.00
2023-05-23T03:33:56.882Z,128.00
2023-05-23T03:34:56.905Z,124.00
2023-05-23T03:35:56.869Z,128.00
2023-05-23T03:36:57.810Z,124.00
2023-05-23T03:37:56.865Z,124.00
2023-05-23T03:38:56.843Z,120.00
2023-05-23T03:39:56.822Z,120.00
2023-05-23T03:40:56.857Z,116.00
2023-05-23T03:41:56.785Z,116.00
2023-05-23T03:42:57.726Z,116.00
2023-05-23T03:43:56.769Z,116.00
2023-05-23T03:44:56.761Z,112.00
2023-05-23T03:45:56.753Z,108.00
2023-05-23T03:46:56.715Z,108.00
2023-05-23T03:47:56.796Z,108.00
2023-05-23T03:48:57.670Z,104.00
2023-05-23T03:49:56.791Z,104.00
2023-05-23T03:50:56.646Z,100.00
2023-05-23T03:51:56.856Z,100.00
2023-05-23T03:52:56.676Z,100.00
2023-05-23T03:53:57.612Z,104.00
2023-05-23T03:54:56.643Z,104.00
2023-05-23T03:55:56.592Z,108.00
2023-05-23T03:56:56.637Z,108.00
2023-05-23T03:57:56.586Z,112.00
2023-05-23T03:58:56.596Z,120.00
2023-05-23T03:59:57.553Z,120.00
2023-05-23T04:00:56.580Z,128.00
2023-05-23T04:01:56.565Z,136.00
2023-05-23T04:02:56.602Z,140.00
2023-05-23T04:03:56.610Z,148.00
2023-05-23T04:04:56.576Z,160.00
2023-05-23T04:05:57.429Z,172.00
2023-05-23T04:06:56.456Z,180.00
2023-05-23T04:07:56.517Z,196.00
2023-05-23T04:08:56.482Z,216.00
2023-05-23T04:09:56.489Z,240.00
2023-05-23T04:10:56.431Z,264.00
2023-05-23T04:11:57.324Z,304.00
2023-05-23T04:12:56.392Z,348.00
2023-05-23T04:13:56.377Z,396.00
2023-05-23T04:14:56.393Z,456.00
2023-05-23T04:15:56.576Z,508.00
2023-05-23T04:16:57.300Z,556.00
2023-05-23T04:17:56.467Z,572.00
2023-05-23T04:18:56.402Z,584.00
2023-05-23T04:19:56.297Z,584.00
2023-05-23T04:20:56.332Z,580.00
2023-05-23T04:21:57.207Z,572.00
2023-05-23T04:22:56.382Z,560.00
2023-05-23T04:23:56.291Z,532.00
2023-05-23T04:24:56.214Z,508.00
2023-05-23T04:25:56.265Z,496.00
2023-05-23T04:26:56.253Z,504.00
2023-05-23T04:27:57.132Z,516.00
2023-05-23T04:28:56.225Z,508.00
2023-05-23T04:29:56.176Z,484.00
2023-05-23T04:30:56.211Z,452.00
2023-05-23T04:31:56.116Z,424.00
2023-05-23T04:32:56.189Z,400.00
2023-05-23T04:33:57.078Z,372.00
2023-05-23T04:34:56.214Z,364.00
2023-05-23T04:35:56.102Z,356.00
2023-05-23T04:36:56.133Z,348.00
2023-05-23T04:37:56.227Z,348.00
2023-05-23T04:38:57.033Z,352.00
2023-05-23T04:39:56.079Z,348.00
2023-05-23T04:40:56.159Z,348.00
2023-05-23T04:41:56.093Z,356.00
2023-05-23T04:42:56.077Z,372.00
2023-05-23T04:43:57.047Z,392.00
2023-05-23T04:44:56.026Z,424.00
2023-05-23T04:45:56.078Z,456.00
2023-05-23T04:46:56.155Z,484.00
2023-05-23T04:47:56.132Z,504.00
2023-05-23T04:48:56.928Z,516.00
2023-05-23T04:49:56.075Z,512.00
2023-05-23T04:50:55.915Z,512.00
2023-05-23T04:51:56.034Z,496.00
2023-05-23T04:52:56.338Z,476.00
2023-05-23T04:53:59.426Z,448.00
2023-05-23T04:54:56.808Z,440.00
2023-05-23T04:55:55.818Z,436.00
2023-05-23T04:56:55.848Z,436.00
2023-05-23T04:57:55.824Z,436.00
2023-05-23T04:58:55.864Z,436.00
2023-05-23T04:59:55.805Z,448.00
2023-05-23T05:00:56.746Z,464.00
2023-05-23T05:01:55.789Z,476.00
2023-05-23T05:02:55.837Z,496.00
2023-05-23T05:03:55.827Z,512.00
2023-05-23T05:04:55.708Z,516.00
2023-05-23T05:05:55.729Z,516.00
2023-05-23T05:06:56.664Z,508.00
2023-05-23T05:07:55.724Z,504.00
2023-05-23T05:08:55.674Z,508.00
2023-05-23T05:09:56.124Z,496.00
2023-05-23T05:10:55.710Z,500.00
2023-05-23T05:11:56.594Z,492.00
2023-05-23T05:12:58.443Z,488.00
2023-05-23T05:13:55.614Z,492.00
2023-05-23T05:14:55.612Z,504.00
2023-05-23T05:15:55.625Z,516.00
2023-05-23T05:16:55.685Z,512.00
2023-05-23T05:17:56.575Z,508.00
2023-05-23T05:18:55.580Z,496.00
2023-05-23T05:19:55.595Z,496.00
2023-05-23T05:20:55.578Z,492.00
2023-05-23T05:21:55.581Z,476.00
2023-05-23T05:22:56.442Z,460.00
2023-05-23T05:23:55.571Z,448.00
2023-05-23T05:24:55.482Z,448.00
2023-05-23T05:25:55.431Z,444.00
2023-05-23T05:26:55.455Z,444.00
2023-05-23T05:27:56.402Z,448.00
2023-05-23T05:28:55.470Z,448.00
2023-05-23T05:29:55.407Z,452.00
2023-05-23T05:30:55.568Z,456.00
2023-05-23T05:31:55.473Z,464.00
2023-05-23T05:32:55.448Z,476.00
2023-05-23T05:33:56.365Z,492.00
2023-05-23T05:34:55.329Z,500.00
2023-05-23T05:35:55.344Z,512.00
2023-05-23T05:36:55.377Z,536.00
2023-05-23T05:37:55.384Z,548.00
2023-05-23T05:38:56.210Z,548.00
2023-05-23T05:39:55.310Z,548.00
2023-05-23T05:40:55.293Z,536.00
2023-05-23T05:41:55.272Z,532.00
2023-05-23T05:42:55.266Z,528.00
2023-05-23T05:43:56.296Z,516.00
2023-05-23T05:44:55.253Z,520.00
2023-05-23T05:45:55.223Z,524.00
2023-05-23T05:46:55.228Z,516.00
2023-05-23T05:47:55.278Z,520.00
2023-05-23T05:48:55.211Z,532.00
2023-05-23T05:49:56.174Z,572.00
2023-05-23T05:50:55.161Z,612.00
2023-05-23T05:51:55.139Z,660.00
2023-05-23T05:52:55.213Z,716.00
2023-05-23T05:53:55.236Z,744.00
2023-05-23T05:54:56.081Z,764.00
2023-05-23T05:55:55.112Z,772.00
2023-05-23T05:56:55.090Z,788.00
2023-05-23T05:57:55.048Z,812.00
2023-05-23T05:58:55.310Z,848.00
2023-05-23T05:59:55.060Z,892.00
2023-05-23T06:00:55.945Z,940.00
2023-05-23T06:01:55.038Z,988.00
2023-05-23T06:02:55.223Z,1040.00
2023-05-23T06:03:55.228Z,1108.00
2023-05-23T06:04:55.084Z,1204.00
2023-05-23T06:05:54.936Z,1280.00
2023-05-23T06:06:55.910Z,1372.00
2023-05-23T06:07:54.958Z,1476.00
2023-05-23T06:08:54.941Z,1572.00
2023-05-23T06:09:54.990Z,1580.00
2023-05-23T06:10:54.894Z,1528.00
2023-05-23T06:11:55.868Z,1488.00
2023-05-23T06:12:54.960Z,1520.00
2023-05-23T06:13:54.956Z,1596.00
2023-05-23T06:14:54.845Z,1612.00
2023-05-23T06:15:54.878Z,1636.00
2023-05-23T06:16:54.899Z,1668.00
2023-05-23T06:17:55.773Z,1680.00
2023-05-23T06:18:54.847Z,1748.00
2023-05-23T06:19:54.846Z,1844.00
2023-05-23T06:20:54.841Z,1904.00
2023-05-23T06:21:54.754Z,2084.00
2023-05-23T06:22:54.841Z,2084.00
2023-05-23T06:23:55.690Z,2172.00
2023-05-23T06:24:54.812Z,2420.00
2023-05-23T06:25:54.735Z,2480.00
2023-05-23T06:26:54.695Z,2716.00
2023-05-23T06:27:54.719Z,2812.00
2023-05-23T06:28:54.648Z,2980.00
2023-05-23T06:29:55.658Z,3012.00
2023-05-23T06:30:54.633Z,3000.00
2023-05-23T06:31:54.670Z,2976.00
2023-05-23T06:32:54.647Z,3052.00
2023-05-23T06:33:54.654Z,3136.00
2023-05-23T06:34:54.612Z,3208.00
2023-05-23T06:35:55.536Z,3348.00
2023-05-23T06:36:54.559Z,3464.00
2023-05-23T06:37:54.567Z,3652.00
2023-05-23T06:38:54.629Z,3764.00
2023-05-23T06:39:54.536Z,3928.00
2023-05-23T06:40:55.466Z,4076.00
2023-05-23T06:41:54.505Z,3836.00
2023-05-23T06:42:54.504Z,3808.00
2023-05-23T06:43:54.498Z,3960.00
2023-05-23T06:44:54.459Z,3856.00
2023-05-23T06:45:55.535Z,3728.00
2023-05-23T06:46:54.420Z,3668.00
2023-05-23T06:47:54.472Z,3576.00
2023-05-23T06:49:06.612Z,3444.00
2023-05-23T06:49:55.900Z,3228.00
2023-05-23T06:50:55.420Z,3212.00
2023-05-23T06:51:54.571Z,3192.00
2023-05-23T06:52:54.377Z,3192.00
2023-05-23T06:53:54.370Z,3348.00
2023-05-23T06:54:54.367Z,3532.00
2023-05-23T06:55:55.305Z,3656.00
2023-05-23T06:56:54.321Z,3784.00
2023-05-23T06:57:54.349Z,3964.00
2023-05-23T06:58:54.316Z,4144.00
2023-05-23T06:59:54.330Z,4316.00
2023-05-23T07:00:54.267Z,4528.00
2023-05-23T07:01:55.221Z,4248.00
2023-05-23T07:02:54.280Z,3884.00
2023-05-23T07:03:54.233Z,3640.00
2023-05-23T07:04:54.260Z,3648.00
2023-05-23T07:05:54.267Z,3764.00
2023-05-23T07:06:55.126Z,3856.00
2023-05-23T07:07:54.148Z,3900.00
2023-05-23T07:08:54.220Z,4000.00
2023-05-23T07:09:54.195Z,3932.00
2023-05-23T07:10:54.173Z,3852.00
2023-05-23T07:11:54.164Z,3752.00
2023-05-23T07:12:55.036Z,3860.00
2023-05-23T07:13:54.127Z,3884.00
2023-05-23T07:14:54.074Z,3904.00
2023-05-23T07:15:54.065Z,3936.00
2023-05-23T07:16:54.113Z,4104.00
2023-05-23T07:17:55.040Z,4340.00
2023-05-23T07:18:54.040Z,4608.00
2023-05-23T07:19:54.028Z,5188.00
2023-05-23T07:20:54.005Z,5504.00
2023-05-23T07:21:54.061Z,5640.00
2023-05-23T07:22:54.994Z,5596.00
2023-05-23T07:23:53.990Z,5244.00
2023-05-23T07:24:54.071Z,5156.00
2023-05-23T07:26:02.651Z,4996.00
2023-05-23T07:26:55.448Z,5232.00
2023-05-23T07:27:53.906Z,5084.00
2023-05-23T07:28:54.866Z,4864.00
2023-05-23T07:29:53.903Z,4816.00
2023-05-23T07:30:53.950Z,5164.00
2023-05-23T07:31:53.876Z,5432.00
2023-05-23T07:32:53.999Z,5076.00
2023-05-23T07:33:56.499Z,4988.00
2023-05-23T07:34:53.835Z,4968.00
2023-05-23T07:35:53.875Z,4864.00
2023-05-23T07:36:53.911Z,4756.00
2023-05-23T07:37:54.076Z,4664.00
2023-05-23T07:38:53.769Z,4556.00
2023-05-23T07:39:54.850Z,4544.00
2023-05-23T07:41:06.838Z,4472.00
2023-05-23T07:41:55.243Z,4436.00
2023-05-23T07:42:54.391Z,4512.00
2023-05-23T07:43:53.748Z,4596.00
2023-05-23T07:44:53.705Z,4548.00
2023-05-23T07:45:54.621Z,4472.00
2023-05-23T07:46:53.801Z,4476.00
2023-05-23T07:47:53.736Z,4700.00
2023-05-23T07:48:53.648Z,5200.00
2023-05-23T07:49:53.697Z,5368.00
2023-05-23T07:50:54.564Z,5724.00
2023-05-23T07:51:53.604Z,5872.00
2023-05-23T07:52:53.623Z,5920.00
2023-05-23T07:53:53.596Z,5768.00
2023-05-23T07:54:53.619Z,5568.00
2023-05-23T07:55:53.567Z,5564.00
2023-05-23T07:56:54.543Z,5508.00
2023-05-23T07:57:53.541Z,5536.00
2023-05-23T07:58:53.550Z,5492.00
2023-05-23T07:59:53.511Z,5328.00
2023-05-23T08:00:53.513Z,5484.00
2023-05-23T08:01:54.485Z,5944.00
2023-05-23T08:02:53.571Z,5640.00
2023-05-23T08:03:53.475Z,5096.00
2023-05-23T08:04:53.538Z,5400.00
2023-05-23T08:05:53.410Z,7772.00
2023-05-23T08:07:05.086Z,6916.00
2023-05-23T08:07:55.878Z,8048.00
2023-05-23T08:08:53.655Z,10144.00
2023-05-23T08:09:53.708Z,10300.00
2023-05-23T08:10:54.452Z,10124.00
2023-05-23T08:11:53.361Z,9904.00
2023-05-23T08:12:54.278Z,9816.00
2023-05-23T08:13:53.347Z,7580.00
2023-05-23T08:14:53.677Z,6748.00
2023-05-23T08:15:53.313Z,6388.00
2023-05-23T08:16:53.395Z,8760.00
2023-05-23T08:17:53.378Z,8468.00
2023-05-23T08:18:54.229Z,6124.00
2023-05-23T08:19:53.265Z,6320.00
2023-05-23T08:20:53.275Z,5532.00
2023-05-23T08:21:53.233Z,5600.00
2023-05-23T08:22:53.242Z,5436.00
2023-05-23T08:23:53.253Z,6264.00
2023-05-23T08:24:54.152Z,6796.00
2023-05-23T08:25:53.223Z,7592.00
2023-05-23T08:26:53.193Z,9432.00
2023-05-23T08:27:53.199Z,9416.00
2023-05-23T08:28:53.162Z,9472.00
2023-05-23T08:29:53.141Z,10028.00
2023-05-23T08:30:54.107Z,10004.00
2023-05-23T08:31:53.250Z,9968.00
2023-05-23T08:32:53.207Z,8720.00
2023-05-23T08:33:53.202Z,9644.00
2023-05-23T08:34:53.141Z,10560.00
2023-05-23T08:35:53.067Z,11012.00
2023-05-23T08:36:54.003Z,11012.00
2023-05-23T08:37:53.126Z,9044.00
2023-05-23T08:38:53.077Z,7924.00
2023-05-23T08:39:53.085Z,7240.00
2023-05-23T08:40:53.019Z,6972.00
2023-05-23T08:41:53.939Z,9700.00
2023-05-23T08:42:52.996Z,9236.00
2023-05-23T08:43:53.033Z,7288.00
2023-05-23T08:44:53.060Z,6616.00
2023-05-23T08:45:53.095Z,7668.00
2023-05-23T08:46:53.868Z,5216.00
2023-05-23T08:47:53.030Z,4880.00
2023-05-23T08:49:50.454Z,5052.00
2023-05-23T08:50:50.422Z,4832.00
2023-05-23T08:51:51.374Z,8680.00
2023-05-23T08:52:50.453Z,9472.00
2023-05-23T08:53:52.904Z,7524.00
2023-05-23T08:54:50.385Z,8792.00
2023-05-23T08:55:50.429Z,9856.00
2023-05-23T08:56:51.261Z,10052.00
2023-05-23T08:57:50.336Z,10388.00
2023-05-23T08:58:50.353Z,10536.00
2023-05-23T08:59:50.310Z,11284.00
2023-05-23T09:00:50.325Z,12296.00
2023-05-23T09:01:50.503Z,12412.00
2023-05-23T09:02:51.208Z,12548.00
2023-05-23T09:03:50.308Z,8436.00
2023-05-23T09:04:50.279Z,9936.00
2023-05-23T09:05:50.339Z,13792.00
2023-05-23T09:06:50.253Z,10268.00
2023-05-23T09:07:51.219Z,9972.00
2023-05-23T09:08:50.254Z,9168.00
2023-05-23T09:09:50.166Z,9272.00
2023-05-23T09:10:50.221Z,11196.00
2023-05-23T09:11:50.119Z,10912.00
2023-05-23T09:12:50.149Z,8656.00
2023-05-23T09:13:51.118Z,8840.00
2023-05-23T09:14:50.111Z,8712.00
2023-05-23T09:15:50.189Z,9944.00
2023-05-23T09:16:50.084Z,8956.00
2023-05-23T09:17:50.128Z,9848.00
2023-05-23T09:18:51.032Z,8476.00
2023-05-23T09:19:50.086Z,8824.00
2023-05-23T09:20:50.043Z,7984.00
2023-05-23T09:21:50.007Z,9868.00
2023-05-23T09:22:50.053Z,8720.00
2023-05-23T09:23:50.946Z,9044.00
2023-05-23T09:24:49.996Z,8928.00
2023-05-23T09:25:49.934Z,9016.00
2023-05-23T09:26:49.986Z,10552.00
2023-05-23T09:27:49.947Z,8676.00
2023-05-23T09:28:50.892Z,9328.00
2023-05-23T09:29:49.922Z,8664.00
2023-05-23T09:30:49.917Z,8512.00
2023-05-23T09:31:49.949Z,8112.00
2023-05-23T09:32:49.899Z,7772.00
2023-05-23T09:33:56.170Z,7464.00
2023-05-23T09:34:49.821Z,7852.00
2023-05-23T09:35:49.821Z,7972.00
2023-05-23T09:36:49.843Z,7868.00
2023-05-23T09:37:49.812Z,8012.00
2023-05-23T09:38:56.808Z,7952.00
2023-05-23T09:39:49.852Z,7812.00
2023-05-23T09:40:49.842Z,8304.00
2023-05-23T09:41:49.774Z,8096.00
2023-05-23T09:42:49.928Z,8136.00
2023-05-23T09:43:50.717Z,7880.00
2023-05-23T09:44:49.731Z,7812.00
2023-05-23T09:45:49.838Z,7832.00
2023-05-23T09:46:49.914Z,7508.00
2023-05-23T09:47:49.681Z,7424.00
2023-05-23T09:48:49.665Z,7548.00
2023-05-23T09:49:50.617Z,7692.00
2023-05-23T09:50:49.711Z,7856.00
2023-05-23T09:51:49.723Z,8300.00
2023-05-23T09:52:49.654Z,8740.00
2023-05-23T09:53:49.600Z,8812.00
2023-05-23T09:54:50.609Z,8308.00
2023-05-23T09:55:49.597Z,8108.00
2023-05-23T09:56:49.684Z,8720.00
2023-05-23T09:57:49.536Z,8504.00
2023-05-23T09:58:49.543Z,7948.00
2023-05-23T09:59:50.524Z,8148.00
2023-05-23T10:00:49.562Z,5956.00
2023-05-23T10:01:49.537Z,6928.00
2023-05-23T10:02:49.513Z,6948.00
2023-05-23T10:03:49.524Z,6792.00
2023-05-23T10:04:49.564Z,6276.00
2023-05-23T10:05:50.436Z,5996.00
2023-05-23T10:06:49.470Z,5520.00
2023-05-23T10:07:49.406Z,6288.00
2023-05-23T10:08:49.389Z,6724.00
2023-05-23T10:09:49.435Z,5676.00
2023-05-23T10:10:50.348Z,5636.00
2023-05-23T10:11:49.356Z,5968.00
2023-05-23T10:12:49.467Z,6752.00
2023-05-23T10:13:49.457Z,6768.00
2023-05-23T10:14:49.404Z,7432.00
2023-05-23T10:15:50.281Z,5744.00
2023-05-23T10:16:49.350Z,5532.00
2023-05-23T10:17:49.365Z,3400.00
2023-05-23T10:18:49.304Z,3012.00
2023-05-23T10:19:49.305Z,3056.00
2023-05-23T10:20:49.301Z,3396.00
2023-05-23T10:21:50.215Z,3604.00
2023-05-23T10:22:49.363Z,3444.00
2023-05-23T10:23:49.241Z,2900.00
2023-05-23T10:24:49.189Z,2724.00
2023-05-23T10:25:49.403Z,3448.00
2023-05-23T10:26:50.149Z,3984.00
2023-05-23T10:27:49.248Z,4036.00
2023-05-23T10:28:49.189Z,3960.00
2023-05-23T10:29:49.178Z,3804.00
2023-05-23T10:30:49.133Z,4568.00
2023-05-23T10:31:49.106Z,6216.00
2023-05-23T10:32:50.280Z,4120.00
2023-05-23T10:33:49.151Z,3888.00
2023-05-23T10:34:49.060Z,3752.00
2023-05-23T10:35:49.097Z,4884.00
2023-05-23T10:36:49.026Z,6184.00
2023-05-23T10:37:49.074Z,6480.00
2023-05-23T10:38:51.555Z,6132.00
2023-05-23T10:39:48.996Z,7352.00
2023-05-23T10:40:48.998Z,8272.00
2023-05-23T10:41:49.079Z,8592.00
2023-05-23T10:42:48.981Z,10152.00
2023-05-23T10:43:48.988Z,10860.00
2023-05-23T10:44:55.172Z,11160.00
2023-05-23T10:45:48.916Z,13044.00
2023-05-23T10:46:49.019Z,9700.00
2023-05-23T10:47:49.101Z,9096.00
2023-05-23T10:48:48.873Z,7772.00
2023-05-23T10:49:48.885Z,6512.00
2023-05-23T10:50:49.865Z,6788.00
2023-05-23T10:51:50.876Z,6828.00
2023-05-23T10:52:48.849Z,6328.00
2023-05-23T10:53:48.853Z,7064.00
2023-05-23T10:54:48.796Z,7976.00
2023-05-23T10:55:49.745Z,7936.00
2023-05-23T10:56:48.858Z,8268.00
2023-05-23T10:57:50.477Z,7068.00
2023-05-23T10:58:48.743Z,7592.00
2023-05-23T10:59:48.790Z,8400.00
2023-05-23T11:00:48.761Z,8280.00
2023-05-23T11:01:49.704Z,8868.00
2023-05-23T11:02:48.723Z,9616.00
2023-05-23T11:03:50.582Z,9272.00
2023-05-23T11:04:48.798Z,7556.00
2023-05-23T11:05:48.703Z,6324.00
2023-05-23T11:06:49.560Z,6100.00
2023-05-23T11:07:48.618Z,6684.00
2023-05-23T11:08:49.231Z,6788.00
2023-05-23T11:09:48.618Z,7044.00
2023-05-23T11:10:48.671Z,7892.00
2023-05-23T11:11:48.634Z,7816.00
2023-05-23T11:12:49.519Z,8504.00
2023-05-23T11:13:48.692Z,7376.00
2023-05-23T11:14:48.531Z,6588.00
2023-05-23T11:15:48.561Z,5408.00
2023-05-23T11:16:48.737Z,5496.00
2023-05-23T11:17:48.525Z,4360.00
2023-05-23T11:18:49.470Z,4080.00
2023-05-23T11:19:48.546Z,4160.00
2023-05-23T11:20:48.489Z,4368.00
2023-05-23T11:21:48.578Z,4044.00
2023-05-23T11:22:48.424Z,3708.00
2023-05-23T11:23:49.402Z,3684.00
2023-05-23T11:24:48.428Z,3408.00
2023-05-23T11:25:48.434Z,3400.00
2023-05-23T11:26:48.431Z,3456.00
2023-05-23T11:27:48.353Z,3160.00
2023-05-23T11:28:49.374Z,3044.00
2023-05-23T11:29:48.473Z,3176.00
2023-05-23T11:30:48.349Z,3296.00
2023-05-23T11:31:48.368Z,3252.00
2023-05-23T11:32:48.415Z,3252.00
2023-05-23T11:33:49.281Z,3392.00
2023-05-23T11:34:48.333Z,3476.00
2023-05-23T11:35:48.371Z,3544.00
2023-05-23T11:36:48.281Z,3640.00
2023-05-23T11:37:48.344Z,3756.00
2023-05-23T11:38:49.191Z,3724.00
2023-05-23T11:39:48.308Z,4124.00
2023-05-23T11:40:48.241Z,4592.00
2023-05-23T11:41:48.202Z,4732.00
2023-05-23T11:42:48.239Z,4592.00
2023-05-23T11:43:48.368Z,5040.00
2023-05-23T11:44:49.081Z,5120.00
2023-05-23T11:45:48.244Z,5148.00
2023-05-23T11:46:48.171Z,5272.00
2023-05-23T11:47:48.175Z,5320.00
2023-05-23T11:48:48.177Z,5192.00
2023-05-23T11:49:49.055Z,5308.00
2023-05-23T11:50:48.162Z,5460.00
2023-05-23T11:51:48.079Z,5884.00
2023-05-23T11:52:48.081Z,6264.00
2023-05-23T11:53:48.218Z,6756.00
2023-05-23T11:54:48.986Z,6600.00
2023-05-23T11:55:48.034Z,6048.00
2023-05-23T11:56:48.014Z,5464.00
2023-05-23T11:57:47.989Z,6700.00
2023-05-23T11:58:48.083Z,7564.00
2023-05-23T11:59:48.011Z,7148.00
2023-05-23T12:00:48.924Z,6828.00
2023-05-23T12:01:47.972Z,6836.00
2023-05-23T12:02:48.067Z,4772.00
2023-05-23T12:03:48.316Z,4576.00
2023-05-23T12:04:48.039Z,4696.00
2023-05-23T12:05:48.827Z,5596.00
2023-05-23T12:06:47.887Z,6504.00
2023-05-23T12:07:48.011Z,6600.00
2023-05-23T12:08:47.828Z,6056.00
2023-05-23T12:09:47.873Z,6128.00
2023-05-23T12:10:48.875Z,5436.00
2023-05-23T12:11:47.864Z,5084.00
2023-05-23T12:12:47.885Z,5060.00
2023-05-23T12:13:48.037Z,5456.00
2023-05-23T12:14:47.795Z,4864.00
2023-05-23T12:15:49.791Z,4900.00
2023-05-23T12:16:47.912Z,4304.00
2023-05-23T12:17:47.849Z,3912.00
2023-05-23T12:18:47.930Z,3872.00
2023-05-23T12:19:47.711Z,4168.00
2023-05-23T12:20:47.732Z,4204.00
2023-05-23T12:21:48.602Z,4704.00
2023-05-23T12:22:47.684Z,4920.00
2023-05-23T12:23:47.930Z,4860.00
2023-05-23T12:24:47.661Z,4752.00
2023-05-23T12:25:48.001Z,4876.00
2023-05-23T12:26:47.616Z,4892.00
2023-05-23T12:27:48.541Z,4960.00
2023-05-23T12:28:47.598Z,5696.00